createdAt,value
2023-09-08T00:00:31.865Z,7.80
2023-09-08T00:05:35.595Z,7.60
2023-09-08T00:10:40.058Z,8.00
2023-09-08T00:15:45.181Z,8.23
2023-09-08T00:20:48.854Z,7.70
2023-09-08T00:25:53.167Z,7.50
2023-09-08T00:30:58.757Z,8.97
2023-09-08T00:36:02.522Z,7.83
2023-09-08T00:41:07.278Z,7.97
2023-09-08T00:46:13.402Z,8.27
2023-09-08T00:51:17.328Z,8.33
2023-09-08T00:56:20.759Z,7.73
2023-09-08T01:01:27.519Z,7.67
2023-09-08T01:06:31.202Z,7.60
2023-09-08T01:11:34.620Z,7.93
2023-09-08T01:16:42.108Z,7.87
2023-09-08T01:22:13.977Z,7.40
2023-09-08T01:27:21.103Z,8.37
2023-09-08T01:32:24.678Z,7.70
2023-09-08T01:37:28.403Z,7.50
2023-09-08T01:42:32.932Z,7.60
2023-09-08T01:47:36.548Z,8.10
2023-09-08T01:52:40.270Z,7.10
2023-09-08T01:57:45.211Z,6.83
2023-09-08T02:02:48.396Z,7.30
2023-09-08T02:07:51.602Z,7.03
2023-09-08T02:12:56.413Z,8.23
2023-09-08T02:17:59.588Z,7.40
2023-09-08T02:23:07.811Z,7.10
2023-09-08T02:28:12.773Z,6.97
2023-09-08T02:33:16.101Z,6.90
2023-09-08T02:38:19.320Z,7.20
2023-09-08T02:43:23.809Z,7.37
2023-09-08T02:48:27.150Z,7.17
2023-09-08T02:53:30.301Z,7.77
2023-09-08T02:58:35.939Z,7.37
2023-09-08T03:03:39.447Z,7.50
2023-09-08T03:08:43.034Z,7.33
2023-09-08T03:13:47.524Z,7.00
2023-09-08T03:18:50.695Z,7.73
2023-09-08T03:23:53.896Z,7.50
2023-09-08T03:28:58.757Z,7.17
2023-09-08T03:34:02.048Z,7.63
2023-09-08T03:39:05.890Z,7.17
2023-09-08T03:44:10.350Z,7.97
2023-09-08T03:49:13.926Z,7.90
2023-09-08T03:54:17.064Z,7.53
2023-09-08T03:59:21.688Z,7.13
2023-09-08T04:04:24.960Z,7.57
2023-09-08T04:09:29.105Z,7.17
2023-09-08T04:14:35.032Z,7.60
2023-09-08T04:19:38.417Z,7.80
2023-09-08T04:24:41.753Z,7.67
2023-09-08T04:29:46.457Z,8.00
2023-09-08T04:34:50.427Z,8.10
2023-09-08T04:39:53.628Z,8.40
2023-09-08T04:44:58.254Z,8.73
2023-09-08T04:50:01.676Z,8.73
2023-09-08T04:55:05.491Z,7.37
2023-09-08T05:00:12.873Z,7.50
2023-09-08T05:05:16.379Z,7.40
2023-09-08T05:10:19.544Z,7.57
2023-09-08T05:15:26.215Z,8.80
2023-09-08T05:20:29.673Z,8.00
2023-09-08T05:25:33.098Z,8.33
2023-09-08T05:30:37.555Z,8.30
2023-09-08T05:35:40.725Z,8.37
2023-09-08T05:40:44.720Z,8.50
2023-09-08T05:45:49.432Z,8.00
2023-09-08T05:50:52.743Z,8.03
2023-09-08T05:55:56.031Z,8.33
2023-09-08T06:01:00.853Z,8.30
2023-09-08T06:06:04.226Z,8.00
2023-09-08T06:11:07.609Z,8.63
2023-09-08T06:16:12.365Z,8.27
2023-09-08T06:21:16.058Z,8.47
2023-09-08T06:26:19.427Z,8.80
2023-09-08T06:31:24.702Z,8.80
2023-09-08T06:36:28.095Z,8.70
2023-09-08T06:41:31.671Z,9.23
2023-09-08T06:46:36.807Z,9.30
2023-09-08T06:51:40.256Z,8.70
2023-09-08T06:56:44.070Z,7.83
2023-09-08T07:01:50.028Z,8.33
2023-09-08T07:06:55.873Z,8.77
2023-09-08T07:11:59.651Z,7.63
2023-09-08T07:17:05.132Z,7.40
2023-09-08T07:22:08.478Z,7.75
2023-09-08T07:27:13.878Z,6.70
2023-09-08T07:32:18.826Z,6.50
2023-09-08T07:37:22.804Z,6.50
2023-09-08T07:42:26.796Z,6.22
2023-09-08T07:47:31.939Z,6.65
2023-09-08T07:52:35.672Z,6.10
2023-09-08T07:57:38.979Z,6.10
2023-09-08T08:02:45.391Z,6.32
2023-09-08T08:07:49.848Z,8.70
2023-09-08T08:12:53.356Z,8.10
2023-09-08T08:17:58.083Z,6.07
2023-09-08T08:23:01.530Z,6.50
2023-09-08T08:28:05.081Z,7.03
2023-09-08T08:33:09.997Z,7.38
2023-09-08T08:38:13.460Z,5.95
2023-09-08T08:43:16.965Z,6.63
2023-09-08T08:48:25.996Z,5.78
2023-09-08T08:53:30.251Z,6.00
2023-09-08T08:58:34.400Z,5.47
2023-09-08T09:03:40.590Z,5.78
2023-09-08T09:08:45.347Z,7.20
2023-09-08T09:13:48.588Z,5.30
2023-09-08T09:18:58.322Z,5.60
2023-09-08T09:24:01.814Z,5.20
2023-09-08T09:29:14.986Z,5.57
2023-09-08T09:34:19.632Z,5.60
2023-09-08T09:39:24.713Z,5.05
2023-09-08T09:44:27.979Z,5.70
2023-09-08T09:49:33.915Z,5.88
2023-09-08T09:54:37.204Z,6.10
2023-09-08T09:59:41.320Z,6.43
2023-09-08T10:04:45.966Z,5.80
2023-09-08T10:09:49.147Z,5.93
2023-09-08T10:14:55.198Z,6.13
2023-09-08T10:20:09.521Z,5.97
2023-09-08T10:25:16.031Z,5.63
2023-09-08T10:30:21.834Z,5.47
2023-09-08T10:35:26.694Z,5.45
2023-09-08T10:40:34.575Z,8.40
2023-09-08T10:45:38.105Z,9.00
2023-09-08T10:50:44.121Z,5.60
2023-09-08T11:01:02.666Z,5.82
2023-09-08T11:06:07.893Z,5.93
2023-09-08T11:11:13.381Z,7.20
2023-09-08T11:16:17.249Z,5.68
2023-09-08T11:21:22.791Z,5.95
2023-09-08T11:26:26.653Z,5.53
2023-09-08T11:31:30.017Z,4.90
2023-09-08T11:36:34.700Z,5.13
2023-09-08T11:41:38.152Z,5.50
2023-09-08T11:46:42.506Z,4.78
2023-09-08T11:51:48.241Z,5.50
2023-09-08T11:56:51.899Z,5.32
2023-09-08T12:01:55.482Z,4.72
2023-09-08T12:07:00.562Z,5.20
2023-09-08T12:12:05.680Z,4.82
2023-09-08T12:17:10.087Z,5.20
2023-09-08T12:22:19.479Z,4.93
2023-09-08T12:27:23.494Z,4.55
2023-09-08T12:32:28.161Z,4.50
2023-09-08T12:37:36.293Z,5.80
2023-09-08T12:42:44.013Z,5.13
2023-09-08T12:47:53.616Z,5.15
2023-09-08T12:52:59.478Z,5.22
2023-09-08T12:58:02.934Z,5.45
2023-09-08T13:03:06.747Z,4.53
2023-09-08T13:08:12.544Z,5.78
2023-09-08T13:13:16.238Z,4.78
2023-09-08T13:18:19.632Z,4.95
2023-09-08T13:23:24.956Z,5.85
2023-09-08T13:28:29.117Z,4.50
2023-09-08T13:33:32.705Z,5.05
2023-09-08T13:38:38.585Z,5.65
2023-09-08T13:43:44.232Z,6.28
2023-09-08T13:48:50.693Z,4.82
2023-09-08T13:53:59.170Z,4.65
2023-09-08T13:59:04.139Z,4.47
2023-09-08T14:04:10.555Z,4.30
2023-09-08T14:14:23.076Z,4.47
2023-09-08T14:19:26.703Z,4.85
2023-09-08T14:24:31.823Z,4.47
2023-09-08T14:29:36.970Z,4.65
2023-09-08T14:34:40.356Z,4.47
2023-09-08T14:39:45.573Z,5.00
2023-09-08T14:44:50.313Z,5.10
2023-09-08T14:49:53.693Z,4.65
2023-09-08T14:54:58.789Z,4.47
2023-09-08T15:00:02.197Z,4.40
2023-09-08T15:05:06.422Z,5.22
2023-09-08T15:10:12.084Z,4.97
2023-09-08T15:15:15.696Z,5.22
2023-09-08T15:20:19.288Z,5.10
2023-09-08T15:25:24.329Z,5.25
2023-09-08T15:30:27.899Z,4.78
2023-09-08T15:35:31.220Z,4.80
2023-09-08T15:40:36.480Z,4.80
2023-09-08T15:45:40.210Z,5.00
2023-09-08T15:50:43.551Z,5.03
2023-09-08T15:55:48.342Z,6.00
2023-09-08T16:00:51.725Z,5.03
2023-09-08T16:05:55.776Z,5.40
2023-09-08T16:11:02.281Z,5.47
2023-09-08T16:16:06.067Z,5.18
2023-09-08T16:21:09.722Z,4.80
2023-09-08T16:26:14.668Z,5.15
2023-09-08T16:31:18.675Z,5.13
2023-09-08T16:36:22.137Z,5.63
2023-09-08T16:41:27.071Z,5.35
2023-09-08T16:46:30.656Z,6.45
2023-09-08T16:51:34.183Z,7.38
2023-09-08T16:56:39.079Z,8.70
2023-09-08T17:01:42.478Z,8.40
2023-09-08T17:06:45.957Z,6.97
2023-09-08T17:11:50.799Z,5.78
2023-09-08T17:16:54.663Z,6.88
2023-09-08T17:21:59.355Z,7.07
2023-09-08T17:27:04.966Z,7.88
2023-09-08T17:32:09.936Z,7.40
2023-09-08T17:37:13.427Z,9.40
2023-09-08T17:42:18.758Z,12.73
2023-09-08T17:47:22.539Z,14.32
2023-09-08T17:52:26.113Z,14.25
2023-09-08T17:57:31.011Z,14.25
2023-09-08T18:02:34.654Z,20.65
2023-09-08T18:07:39.244Z,11.70
2023-09-08T18:12:44.616Z,10.88
2023-09-08T18:17:48.585Z,10.80
2023-09-08T18:22:55.478Z,9.40
2023-09-08T18:28:00.525Z,32.70
2023-09-08T18:33:03.832Z,25.80
2023-09-08T18:38:07.677Z,26.67
2023-09-08T18:43:12.370Z,25.47
2023-09-08T18:48:15.783Z,20.73
2023-09-08T18:53:19.128Z,30.33
2023-09-08T18:58:24.276Z,20.50
2023-09-08T19:03:27.701Z,15.07
2023-09-08T19:08:32.865Z,10.30
2023-09-08T19:13:38.301Z,9.00
2023-09-08T19:18:41.959Z,8.20
2023-09-08T19:23:46.447Z,7.73
2023-09-08T19:28:51.266Z,8.10
2023-09-08T19:33:54.689Z,8.40
2023-09-08T19:38:58.861Z,7.60
2023-09-08T19:44:04.780Z,8.00
2023-09-08T19:49:08.577Z,7.73
2023-09-08T19:54:12.284Z,7.13
2023-09-08T19:59:19.592Z,7.50
2023-09-08T20:04:23.084Z,7.77
2023-09-08T20:09:26.746Z,6.50
2023-09-08T20:14:31.808Z,7.63
2023-09-08T20:19:35.086Z,7.00
2023-09-08T20:24:40.632Z,6.43
2023-09-08T20:29:45.188Z,7.03
2023-09-08T20:34:48.345Z,7.27
2023-09-08T20:39:51.835Z,7.63
2023-09-08T20:44:56.404Z,7.27
2023-09-08T20:49:59.635Z,6.93
2023-09-08T20:55:03.576Z,7.90
2023-09-08T21:00:11.353Z,6.73
2023-09-08T21:05:14.636Z,7.23
2023-09-08T21:10:18.011Z,7.13
2023-09-08T21:15:22.756Z,7.40
2023-09-08T21:20:25.944Z,7.17
2023-09-08T21:25:29.586Z,7.80
2023-09-08T21:30:34.282Z,8.10
2023-09-08T21:35:37.469Z,7.90
2023-09-08T21:40:41.473Z,8.60
2023-09-08T21:45:51.862Z,9.13
2023-09-08T21:50:55.459Z,8.40
2023-09-08T21:55:58.828Z,8.37
2023-09-08T22:01:03.804Z,8.53
2023-09-08T22:06:07.332Z,9.47
2023-09-08T22:11:10.618Z,11.60
2023-09-08T22:16:16.242Z,10.23
2023-09-08T22:21:19.788Z,8.53
2023-09-08T22:26:23.712Z,8.90
2023-09-08T22:31:28.459Z,8.83
2023-09-08T22:36:31.762Z,8.73
2023-09-08T22:41:35.042Z,8.87
2023-09-08T22:46:39.636Z,8.80
2023-09-08T22:51:43.194Z,9.07
2023-09-08T22:56:46.449Z,8.73
2023-09-08T23:01:51.075Z,8.80
2023-09-08T23:06:54.317Z,8.77
2023-09-08T23:11:58.511Z,8.33
2023-09-08T23:17:03.104Z,9.63
2023-09-08T23:22:06.288Z,8.77
2023-09-08T23:27:09.511Z,9.10
2023-09-08T23:32:16.454Z,8.90
2023-09-08T23:37:19.789Z,9.43
2023-09-08T23:42:22.979Z,9.80
2023-09-08T23:47:28.010Z,8.77
2023-09-08T23:52:31.235Z,9.67
2023-09-08T23:57:35.055Z,8.33
